Time;durP1;ratioP1;P1;durP2;ratioP2;P2;SDS_P1;SDS_P2;PMS_P1;PMS_P2;Temp;Humidity;BMP_temperature;BMP_pressure;BME280_temperature;BME280_humidity;BME280_pressure;Samples;Min_cycle;Max_cycle;Signal;HPM_P1;HPM_P2
2023/06/04 00:01:04;;;;;;;10.85;5.75;;;10.30;99.90;;;;;;5072439;28;20048;-38
2023/06/04 00:03:31;;;;;;;10.52;6.63;;;10.20;99.90;;;;;;5054356;28;20483;-37
2023/06/04 00:05:56;;;;;;;11.68;5.82;;;10.20;99.90;;;;;;5071713;28;20068;-38
2023/06/04 00:08:22;;;;;;;9.70;5.82;;;10.30;99.90;;;;;;5054923;28;20480;-37
2023/06/04 00:10:48;;;;;;;13.98;7.05;;;10.20;99.90;;;;;;5065315;28;20055;-39
2023/06/04 00:13:14;;;;;;;11.88;6.60;;;10.20;99.90;;;;;;5072458;28;20079;-40
2023/06/04 00:15:40;;;;;;;10.38;5.82;;;10.20;99.90;;;;;;5071577;28;20520;-38
2023/06/04 00:18:05;;;;;;;10.95;6.22;;;10.10;99.90;;;;;;5072373;28;20258;-36
2023/06/04 00:20:31;;;;;;;11.98;6.65;;;10.10;99.90;;;;;;5072343;28;20097;-38
2023/06/04 00:22:57;;;;;;;12.77;5.50;;;10.00;99.90;;;;;;5071126;28;20056;-37
2023/06/04 00:25:22;;;;;;;11.88;7.35;;;10.00;99.90;;;;;;5071826;28;20079;-35
2023/06/04 00:27:48;;;;;;;8.95;6.22;;;10.00;99.90;;;;;;5073229;28;20047;-37
2023/06/04 00:30:14;;;;;;;15.60;6.68;;;9.90;99.90;;;;;;5071511;28;20479;-39
2023/06/04 00:32:40;;;;;;;9.93;6.20;;;9.90;99.90;;;;;;5072312;28;20562;-38
2023/06/04 00:35:06;;;;;;;7.75;6.22;;;9.90;99.90;;;;;;5071318;28;20043;-35
2023/06/04 00:37:32;;;;;;;10.15;6.43;;;9.90;99.90;;;;;;5061001;28;20448;-37
2023/06/04 00:39:59;;;;;;;10.80;6.43;;;9.80;99.90;;;;;;5062575;28;20040;-36
2023/06/04 00:42:25;;;;;;;9.82;6.88;;;9.80;99.90;;;;;;5073662;28;20134;-40
2023/06/04 00:44:51;;;;;;;14.27;6.88;;;9.70;99.90;;;;;;5085342;28;20496;-40
2023/06/04 00:47:18;;;;;;;10.75;5.95;;;9.70;99.90;;;;;;5075108;28;20157;-40
2023/06/04 00:49:44;;;;;;;14.15;6.10;;;9.70;99.90;;;;;;5051562;28;20059;-38
2023/06/04 00:52:15;;;;;;;9.85;5.70;;;9.60;99.90;;;;;;5075789;28;20219;-39
2023/06/04 00:54:41;;;;;;;10.45;5.80;;;9.60;99.90;;;;;;5074770;28;20492;-35
2023/06/04 00:57:08;;;;;;;9.95;6.43;;;9.60;99.90;;;;;;5076286;28;20055;-38
2023/06/04 00:59:37;;;;;;;11.07;6.72;;;9.60;99.90;;;;;;5075229;28;20055;-38
2023/06/04 01:02:12;;;;;;;9.32;5.82;;;9.50;99.90;;;;;;5075761;28;20070;-37
2023/06/04 01:04:40;;;;;;;10.52;6.22;;;9.50;99.90;;;;;;5075855;28;20091;-39
2023/06/04 01:07:08;;;;;;;11.95;5.88;;;9.50;99.90;;;;;;5075761;28;20056;-40
2023/06/04 01:09:35;;;;;;;11.68;6.25;;;9.50;99.90;;;;;;5075745;28;20062;-40
2023/06/04 01:12:04;;;;;;;11.73;6.00;;;9.50;99.90;;;;;;5074787;28;20075;-41
2023/06/04 01:14:33;;;;;;;13.23;6.68;;;9.40;99.90;;;;;;5074925;28;20056;-40
2023/06/04 01:17:23;;;;;;;13.70;6.38;;;9.40;99.90;;;;;;5074764;28;20040;-35
2023/06/04 01:20:01;;;;;;;14.10;6.55;;;9.40;99.90;;;;;;5075383;28;20116;-36
2023/06/04 01:22:42;;;;;;;14.18;6.93;;;9.30;99.90;;;;;;5074711;28;20059;-36
2023/06/04 01:25:20;;;;;;;11.40;6.30;;;9.30;99.90;;;;;;5074993;28;20054;-38
2023/06/04 01:27:52;;;;;;;12.52;7.15;;;9.30;99.90;;;;;;5075697;28;20590;-39
2023/06/04 01:30:23;;;;;;;12.23;6.50;;;9.30;99.90;;;;;;5075261;28;20486;-38
2023/06/04 01:32:48;;;;;;;9.43;6.60;;;9.30;99.90;;;;;;5074821;28;20085;-36
2023/06/04 01:35:14;;;;;;;12.38;6.13;;;9.30;99.90;;;;;;5074449;28;20489;-37
2023/06/04 01:37:40;;;;;;;13.00;6.35;;;9.30;99.90;;;;;;5063546;28;20575;-36
2023/06/04 01:40:11;;;;;;;9.57;6.03;;;9.30;99.90;;;;;;5064246;28;20516;-39
2023/06/04 01:42:36;;;;;;;14.38;6.70;;;9.30;99.90;;;;;;5070540;28;20092;-38
2023/06/04 01:45:03;;;;;;;7.43;5.97;;;9.40;99.90;;;;;;5070063;28;20144;-37
2023/06/04 01:47:28;;;;;;;10.98;6.13;;;9.40;99.90;;;;;;5074851;28;20054;-38
2023/06/04 01:49:54;;;;;;;13.38;6.35;;;9.40;99.90;;;;;;5067047;28;20407;-44
2023/06/04 01:52:21;;;;;;;14.32;7.25;;;9.40;99.90;;;;;;5075063;28;20436;-40
2023/06/04 01:54:52;;;;;;;11.57;6.57;;;9.40;99.90;;;;;;5074415;28;20056;-40
2023/06/04 01:57:21;;;;;;;17.27;6.78;;;9.40;99.90;;;;;;5057458;28;20095;-40
2023/06/04 01:59:47;;;;;;;10.27;6.47;;;9.40;99.90;;;;;;5074535;28;20097;-39
2023/06/04 02:02:14;;;;;;;11.27;6.80;;;9.40;99.90;;;;;;5072834;28;20056;-37
2023/06/04 02:04:44;;;;;;;10.35;6.55;;;9.40;99.90;;;;;;5073531;28;20403;-39
2023/06/04 02:07:13;;;;;;;11.02;6.85;;;9.40;99.90;;;;;;5067110;28;20101;-39
2023/06/04 02:09:39;;;;;;;16.45;6.65;;;9.30;99.90;;;;;;5059488;28;20132;-36
2023/06/04 02:12:06;;;;;;;10.95;5.55;;;9.30;99.90;;;;;;5074056;28;20116;-40
2023/06/04 02:14:31;;;;;;;12.98;6.90;;;9.30;99.90;;;;;;5073224;28;20307;-40
2023/06/04 02:16:57;;;;;;;9.90;6.25;;;9.30;99.90;;;;;;5074104;28;20055;-39
2023/06/04 02:19:25;;;;;;;12.70;8.02;;;9.30;99.90;;;;;;5074641;28;20127;-39
2023/06/04 02:21:52;;;;;;;15.40;5.93;;;9.30;99.90;;;;;;5074608;28;20063;-38
2023/06/04 02:24:18;;;;;;;11.77;6.78;;;9.30;99.90;;;;;;5072864;28;20173;-39
2023/06/04 02:26:43;;;;;;;10.05;5.70;;;9.30;99.90;;;;;;5071987;28;20159;-37
2023/06/04 02:29:09;;;;;;;12.98;6.47;;;9.30;99.90;;;;;;5073800;28;20116;-38
2023/06/04 02:31:34;;;;;;;11.40;6.45;;;9.20;99.90;;;;;;5073221;28;20303;-36
2023/06/04 02:34:00;;;;;;;10.57;7.22;;;9.20;99.90;;;;;;5072746;28;20135;-38
2023/06/04 02:36:26;;;;;;;15.73;7.10;;;9.20;99.90;;;;;;5070035;28;20059;-40
2023/06/04 02:38:52;;;;;;;14.35;6.07;;;9.20;99.90;;;;;;5057301;28;20048;-38
2023/06/04 02:41:18;;;;;;;15.13;6.22;;;9.20;99.90;;;;;;5071589;28;20524;-40
2023/06/04 02:43:44;;;;;;;12.32;6.43;;;9.10;99.90;;;;;;5064188;28;20118;-38
2023/06/04 02:46:10;;;;;;;12.40;6.43;;;9.10;99.90;;;;;;5072719;28;20060;-39
2023/06/04 02:48:35;;;;;;;8.82;6.10;;;9.10;99.90;;;;;;5073284;28;20063;-39
2023/06/04 02:51:01;;;;;;;12.02;6.65;;;9.10;99.90;;;;;;5065419;28;20067;-40
2023/06/04 02:53:27;;;;;;;10.77;5.95;;;9.10;99.90;;;;;;5073254;28;20131;-37
2023/06/04 02:55:52;;;;;;;11.20;6.32;;;9.10;99.90;;;;;;5074158;28;20044;-38
2023/06/04 02:58:18;;;;;;;11.57;5.75;;;9.00;99.90;;;;;;5072396;28;20148;-40
2023/06/04 03:00:45;;;;;;;10.18;6.40;;;9.00;99.90;;;;;;5073522;28;20461;-36
2023/06/04 03:03:10;;;;;;;15.38;6.05;;;9.00;99.90;;;;;;5073388;28;20105;-41
2023/06/04 03:05:39;;;;;;;12.30;6.68;;;9.00;99.90;;;;;;5073760;28;20056;-39
2023/06/04 03:08:05;;;;;;;12.90;6.63;;;9.00;99.90;;;;;;5073712;28;20047;-37
2023/06/04 03:10:31;;;;;;;12.63;6.00;;;8.90;99.90;;;;;;5071789;28;20188;-38
2023/06/04 03:12:56;;;;;;;9.68;5.95;;;8.90;99.90;;;;;;5072654;28;20052;-38
2023/06/04 03:15:22;;;;;;;8.90;6.03;;;8.90;99.90;;;;;;5072129;28;20062;-40
2023/06/04 03:17:48;;;;;;;8.93;6.28;;;8.90;99.90;;;;;;5073461;28;20090;-37
2023/06/04 03:20:14;;;;;;;15.23;6.20;;;8.90;99.90;;;;;;5074023;28;20056;-40
2023/06/04 03:22:40;;;;;;;14.45;5.80;;;8.80;99.90;;;;;;5073238;28;20113;-36
2023/06/04 03:25:06;;;;;;;8.15;5.70;;;8.80;99.90;;;;;;5073021;28;20412;-40
2023/06/04 03:27:32;;;;;;;9.70;5.55;;;8.80;99.90;;;;;;5072793;28;20048;-40
2023/06/04 03:29:58;;;;;;;9.10;6.05;;;8.80;99.90;;;;;;5072718;28;20055;-37
2023/06/04 03:32:23;;;;;;;9.10;5.68;;;8.80;99.90;;;;;;5072817;28;20049;-38
2023/06/04 03:34:49;;;;;;;9.13;5.30;;;8.80;99.90;;;;;;5072751;28;20051;-40
2023/06/04 03:37:16;;;;;;;8.55;5.32;;;8.80;99.90;;;;;;5065532;28;20060;-36
2023/06/04 03:39:41;;;;;;;10.95;5.97;;;8.80;99.90;;;;;;5060000;28;20040;-41
2023/06/04 03:42:07;;;;;;;11.55;6.38;;;8.90;99.90;;;;;;5072681;28;20389;-40
2023/06/04 03:44:33;;;;;;;9.48;5.68;;;8.90;99.90;;;;;;5062247;28;20050;-40
2023/06/04 03:46:58;;;;;;;8.05;6.82;;;8.80;99.90;;;;;;5072299;28;20129;-37
2023/06/04 03:49:24;;;;;;;8.63;6.53;;;9.00;99.90;;;;;;5067492;28;20347;-41
2023/06/04 03:51:50;;;;;;;10.13;5.53;;;9.30;99.90;;;;;;5071669;28;20768;-37
2023/06/04 03:54:16;;;;;;;8.77;5.90;;;9.70;99.90;;;;;;5072976;28;20059;-42
2023/06/04 03:56:44;;;;;;;10.15;5.53;;;10.20;99.90;;;;;;5073325;28;20075;-40
2023/06/04 03:59:09;;;;;;;15.50;6.43;;;10.70;99.90;;;;;;5072574;28;20148;-39
2023/06/04 04:01:35;;;;;;;11.30;5.30;;;11.20;99.90;;;;;;5071439;28;20924;-39
2023/06/04 04:04:01;;;;;;;12.77;6.03;;;11.70;99.90;;;;;;5072672;28;20404;-37
2023/06/04 04:06:26;;;;;;;11.93;4.88;;;12.10;99.90;;;;;;5070517;28;20083;-37
2023/06/04 04:08:53;;;;;;;7.68;5.25;;;12.60;99.90;;;;;;5053550;28;20491;-40
2023/06/04 04:11:18;;;;;;;8.90;4.75;;;12.90;99.90;;;;;;5070239;28;20552;-40
2023/06/04 04:13:46;;;;;;;7.00;4.40;;;13.20;99.90;;;;;;5074147;28;20051;-40
2023/06/04 04:16:12;;;;;;;8.20;4.55;;;13.50;99.90;;;;;;5076435;28;20122;-41
2023/06/04 04:18:37;;;;;;;5.18;4.22;;;14.00;99.90;;;;;;5075096;28;20054;-39
2023/06/04 04:21:04;;;;;;;8.23;4.78;;;14.50;99.90;;;;;;5075488;28;20067;-44
2023/06/04 04:23:31;;;;;;;17.70;5.85;;;14.90;99.90;;;;;;5075577;28;20537;-39
2023/06/04 04:25:58;;;;;;;8.32;4.85;;;15.40;99.90;;;;;;5075670;28;20048;-37
2023/06/04 04:28:28;;;;;;;8.18;4.82;;;15.70;99.90;;;;;;5076533;28;20124;-38
2023/06/04 04:30:54;;;;;;;9.85;4.43;;;15.90;99.90;;;;;;5076766;28;20405;-38
2023/06/04 04:33:20;;;;;;;8.85;4.88;;;16.20;99.90;;;;;;5075976;28;20960;-39
2023/06/04 04:35:47;;;;;;;9.85;5.30;;;16.50;99.90;;;;;;5076190;28;20055;-41
2023/06/04 04:38:13;;;;;;;7.30;4.95;;;16.80;99.90;;;;;;5062891;28;20251;-37
2023/06/04 04:40:39;;;;;;;10.20;4.88;;;17.00;99.90;;;;;;5068957;28;20408;-37
2023/06/04 04:43:05;;;;;;;8.93;4.97;;;17.30;99.90;;;;;;5067085;28;20197;-39
2023/06/04 04:45:31;;;;;;;8.30;4.80;;;17.50;99.90;;;;;;5073091;28;20051;-40
2023/06/04 04:47:56;;;;;;;7.38;4.38;;;17.70;99.90;;;;;;5076097;28;20043;-39
2023/06/04 04:50:22;;;;;;;6.75;4.40;;;18.10;99.90;;;;;;5067759;28;20432;-42
2023/06/04 04:52:47;;;;;;;14.30;5.60;;;18.30;99.90;;;;;;5076493;28;20538;-40
2023/06/04 04:55:13;;;;;;;7.88;5.20;;;18.40;99.90;;;;;;5075630;28;20036;-40
2023/06/04 04:57:39;;;;;;;11.88;5.50;;;18.50;99.90;;;;;;5076082;28;20128;-40
2023/06/04 05:00:07;;;;;;;11.88;5.30;;;18.70;99.90;;;;;;5076228;28;20043;-38
2023/06/04 05:02:35;;;;;;;12.50;6.15;;;19.00;99.90;;;;;;5075405;28;20048;-43
2023/06/04 05:05:01;;;;;;;9.25;5.15;;;19.20;99.90;;;;;;5075565;28;20048;-37
2023/06/04 05:07:26;;;;;;;12.68;5.60;;;19.60;99.90;;;;;;5074631;28;20048;-39
2023/06/04 05:09:52;;;;;;;12.43;6.35;;;19.80;99.90;;;;;;5074764;28;20159;-39
2023/06/04 05:12:18;;;;;;;13.10;5.90;;;20.20;99.90;;;;;;5074754;28;20054;-38
2023/06/04 05:14:44;;;;;;;13.18;5.63;;;20.60;99.90;;;;;;5075653;28;20051;-39
2023/06/04 05:17:10;;;;;;;10.55;5.25;;;21.20;99.90;;;;;;5075938;28;20131;-40
2023/06/04 05:19:37;;;;;;;10.32;5.35;;;21.40;99.90;;;;;;5076141;28;20083;-43
2023/06/04 05:22:03;;;;;;;12.40;5.35;;;21.70;99.90;;;;;;5075905;28;20122;-40
2023/06/04 05:24:30;;;;;;;8.60;4.90;;;21.80;99.90;;;;;;5075354;28;20088;-38
2023/06/04 05:26:57;;;;;;;12.02;5.20;;;22.00;99.90;;;;;;5075814;28;20056;-41
2023/06/04 05:29:23;;;;;;;11.00;5.07;;;22.50;99.90;;;;;;5075848;28;20047;-39
2023/06/04 05:31:49;;;;;;;11.43;5.70;;;22.80;99.90;;;;;;5074813;28;20039;-40
2023/06/04 05:34:16;;;;;;;10.50;5.38;;;22.50;99.90;;;;;;5074568;28;20056;-45
2023/06/04 05:36:42;;;;;;;7.30;4.60;;;22.80;99.90;;;;;;5070736;28;20459;-42
2023/06/04 05:39:09;;;;;;;10.40;5.13;;;23.20;99.90;;;;;;5055730;28;20450;-39
2023/06/04 05:41:36;;;;;;;11.48;5.60;;;23.00;99.90;;;;;;5072533;28;20105;-39
2023/06/04 05:44:02;;;;;;;8.80;4.80;;;22.90;99.90;;;;;;5067264;28;20713;-39
2023/06/04 05:46:28;;;;;;;8.63;5.30;;;23.20;99.90;;;;;;5074077;28;20075;-44
2023/06/04 05:48:54;;;;;;;10.27;4.95;;;23.80;99.90;;;;;;5073958;28;20147;-42
2023/06/04 05:51:20;;;;;;;10.07;5.03;;;23.90;99.10;;;;;;5067498;28;20077;-40
2023/06/04 05:53:46;;;;;;;9.75;5.43;;;23.80;99.50;;;;;;5075967;28;20090;-45
2023/06/04 05:56:12;;;;;;;8.40;4.63;;;23.70;99.50;;;;;;5074361;28;20560;-41
2023/06/04 05:58:38;;;;;;;8.50;4.88;;;24.40;99.60;;;;;;5074640;28;20092;-41
2023/06/04 06:01:04;;;;;;;12.65;4.93;;;24.50;99.10;;;;;;5073640;28;20082;-40
2023/06/04 06:03:30;;;;;;;9.13;5.65;;;24.70;98.50;;;;;;5056899;28;20056;-40
2023/06/04 06:05:57;;;;;;;8.43;5.55;;;25.20;98.90;;;;;;5073804;28;20044;-39
2023/06/04 06:08:22;;;;;;;7.20;4.63;;;25.70;98.20;;;;;;5074614;28;20141;-40
2023/06/04 06:10:48;;;;;;;8.05;5.15;;;25.60;97.30;;;;;;5074243;28;20036;-40
2023/06/04 06:13:15;;;;;;;9.63;4.75;;;26.30;97.00;;;;;;5074729;28;20055;-40
2023/06/04 06:15:40;;;;;;;7.88;4.22;;;26.80;97.00;;;;;;5055943;28;20054;-37
2023/06/04 06:18:06;;;;;;;10.48;4.30;;;26.80;96.50;;;;;;5074795;28;20475;-41
2023/06/04 06:20:32;;;;;;;7.93;4.18;;;27.30;96.00;;;;;;5072496;28;20048;-41
2023/06/04 06:22:58;;;;;;;7.95;4.40;;;27.40;95.20;;;;;;5073538;28;20562;-39
2023/06/04 06:25:23;;;;;;;6.65;4.30;;;27.20;94.50;;;;;;5073808;28;20506;-40
2023/06/04 06:27:49;;;;;;;9.30;4.70;;;27.00;94.70;;;;;;5074313;28;20044;-42
2023/06/04 06:30:16;;;;;;;7.85;4.68;;;27.00;94.80;;;;;;5074473;28;20052;-41
2023/06/04 06:32:42;;;;;;;11.38;4.45;;;27.40;94.80;;;;;;5072676;28;20048;-42
2023/06/04 06:35:08;;;;;;;8.07;4.20;;;27.70;94.10;;;;;;5072054;28;20138;-38
2023/06/04 06:37:34;;;;;;;8.65;4.47;;;28.00;93.60;;;;;;5062441;28;20167;-45
2023/06/04 06:39:59;;;;;;;5.63;3.92;;;28.40;93.50;;;;;;5061957;28;20465;-41
2023/06/04 06:42:25;;;;;;;8.23;4.63;;;28.30;93.20;;;;;;5070902;28;20074;-41
2023/06/04 06:44:51;;;;;;;8.65;4.03;;;28.30;92.80;;;;;;5067240;28;20056;-40
2023/06/04 06:47:16;;;;;;;8.27;4.28;;;28.20;92.60;;;;;;5074123;28;20555;-44
2023/06/04 06:49:42;;;;;;;7.72;4.70;;;28.00;92.10;;;;;;5066398;28;20056;-45
2023/06/04 06:52:09;;;;;;;7.63;3.65;;;28.20;91.90;;;;;;5073443;28;20048;-38
2023/06/04 06:54:35;;;;;;;7.45;3.65;;;28.30;91.60;;;;;;5073141;28;20185;-41
2023/06/04 06:57:00;;;;;;;7.47;3.78;;;28.00;90.60;;;;;;5073691;28;20048;-40
2023/06/04 06:59:27;;;;;;;6.53;3.72;;;28.20;91.10;;;;;;5073344;28;20040;-39
2023/06/04 07:01:53;;;;;;;8.60;4.40;;;28.20;90.90;;;;;;5057578;28;20052;-38
2023/06/04 07:04:18;;;;;;;7.35;4.03;;;28.40;90.50;;;;;;5066565;28;20052;-42
2023/06/04 07:06:44;;;;;;;18.63;4.75;;;28.90;90.50;;;;;;5061818;28;20051;-42
2023/06/04 07:09:10;;;;;;;25.02;4.65;;;28.40;90.70;;;;;;5074105;28;20570;-42
2023/06/04 07:11:36;;;;;;;12.63;3.95;;;28.20;89.50;;;;;;5060671;28;20061;-41
2023/06/04 07:14:02;;;;;;;5.95;3.38;;;28.60;89.30;;;;;;5071696;28;20060;-44
2023/06/04 07:16:28;;;;;;;7.93;3.83;;;28.50;88.40;;;;;;5073035;28;20399;-39
2023/06/04 07:18:54;;;;;;;8.25;4.20;;;28.40;88.90;;;;;;5073159;28;20445;-43
2023/06/04 07:21:21;;;;;;;6.90;3.28;;;27.50;90.90;;;;;;5071648;28;20055;-37
2023/06/04 07:23:49;;;;;;;9.07;3.35;;;27.20;90.50;;;;;;5073142;28;20071;-43
2023/06/04 07:26:15;;;;;;;8.88;3.60;;;26.70;90.90;;;;;;5071593;28;20229;-39
2023/06/04 07:28:41;;;;;;;7.20;3.30;;;25.70;92.00;;;;;;5073308;28;20044;-43
2023/06/04 07:31:07;;;;;;;5.63;2.90;;;25.50;92.90;;;;;;5071559;28;20089;-42
2023/06/04 07:33:33;;;;;;;9.48;3.90;;;25.40;92.00;;;;;;5072713;28;20841;-44
2023/06/04 07:35:59;;;;;;;7.28;3.58;;;25.00;92.20;;;;;;5071854;28;20051;-38
2023/06/04 07:38:26;;;;;;;10.57;3.53;;;24.50;92.80;;;;;;5053310;28;20484;-41
2023/06/04 07:40:52;;;;;;;5.60;3.15;;;24.40;93.40;;;;;;5064255;28;20567;-44
2023/06/04 07:43:18;;;;;;;8.02;3.58;;;24.00;93.50;;;;;;5064338;28;20048;-37
2023/06/04 07:45:43;;;;;;;8.95;3.70;;;23.90;93.20;;;;;;5073597;28;20052;-40
2023/06/04 07:48:10;;;;;;;6.07;3.28;;;23.80;93.90;;;;;;5074050;28;20051;-38
2023/06/04 07:50:36;;;;;;;7.80;3.28;;;23.60;94.50;;;;;;5069533;28;20498;-38
2023/06/04 07:53:02;;;;;;;7.85;3.22;;;23.60;94.00;;;;;;5076238;28;20048;-39
2023/06/04 07:55:28;;;;;;;5.55;2.95;;;23.50;93.90;;;;;;5077042;28;20051;-45
2023/06/04 07:57:53;;;;;;;8.30;3.60;;;23.30;94.30;;;;;;5077893;28;20563;-40
2023/06/04 08:00:19;;;;;;;6.55;3.00;;;23.20;94.10;;;;;;5075806;28;20471;-39
2023/06/04 08:02:45;;;;;;;8.15;3.10;;;23.20;95.50;;;;;;5077279;28;20429;-39
2023/06/04 08:05:13;;;;;;;8.25;3.53;;;23.00;95.60;;;;;;5075415;28;20094;-38
2023/06/04 08:07:40;;;;;;;8.23;3.42;;;23.20;95.60;;;;;;5077014;28;20047;-39
2023/06/04 08:10:06;;;;;;;7.85;3.60;;;23.20;94.90;;;;;;5077522;28;20056;-41
2023/06/04 08:12:32;;;;;;;7.90;4.00;;;22.80;95.20;;;;;;5076765;28;20170;-40
2023/06/04 08:14:58;;;;;;;9.02;3.15;;;22.60;95.20;;;;;;5077052;28;20131;-38
2023/06/04 08:17:23;;;;;;;8.73;3.15;;;22.20;95.00;;;;;;5075069;28;20082;-39
2023/06/04 08:19:49;;;;;;;7.50;3.45;;;22.30;95.70;;;;;;5076824;28;20123;-37
2023/06/04 08:22:15;;;;;;;8.40;3.45;;;22.00;95.10;;;;;;5075640;28;20538;-40
2023/06/04 08:24:41;;;;;;;5.38;3.08;;;22.00;95.40;;;;;;5076706;28;20036;-40
2023/06/04 08:27:08;;;;;;;6.25;2.90;;;21.70;95.80;;;;;;5075234;28;20048;-42
2023/06/04 08:29:36;;;;;;;8.13;3.05;;;22.00;95.90;;;;;;5076832;28;20518;-41
2023/06/04 08:32:03;;;;;;;8.32;3.33;;;22.10;95.40;;;;;;5076268;28;20499;-40
2023/06/04 08:34:29;;;;;;;8.23;3.53;;;22.00;94.70;;;;;;5076000;28;20052;-43
2023/06/04 08:36:55;;;;;;;7.10;3.20;;;22.10;95.30;;;;;;5070193;28;20048;-37
2023/06/04 08:39:22;;;;;;;7.63;3.17;;;22.10;95.90;;;;;;5058756;28;20044;-43
2023/06/04 08:41:54;;;;;;;7.85;3.38;;;22.10;96.00;;;;;;5076272;28;20054;-40
2023/06/04 08:44:20;;;;;;;5.60;2.95;;;22.10;96.10;;;;;;5067977;28;20052;-36
2023/06/04 08:46:50;;;;;;;7.47;3.17;;;22.50;95.90;;;;;;5076538;28;20510;-44
2023/06/04 08:49:18;;;;;;;7.95;3.03;;;22.50;94.80;;;;;;5072745;28;20076;-46
2023/06/04 08:51:44;;;;;;;5.40;2.70;;;22.60;94.40;;;;;;5074033;28;20083;-45
2023/06/04 08:54:10;;;;;;;6.80;2.50;;;22.50;94.80;;;;;;5076695;28;20629;-39
2023/06/04 08:56:36;;;;;;;6.82;2.88;;;22.50;94.30;;;;;;5076347;28;20456;-41
2023/06/04 08:59:05;;;;;;;9.77;3.22;;;22.40;94.10;;;;;;5076100;28;20063;-40
2023/06/04 09:01:33;;;;;;;4.55;2.25;;;22.40;94.60;;;;;;5075178;28;20072;-40
2023/06/04 09:04:01;;;;;;;5.80;2.92;;;22.30;94.00;;;;;;5075238;28;20048;-46
2023/06/04 09:06:27;;;;;;;7.10;3.47;;;22.20;94.40;;;;;;5075851;28;20562;-40
2023/06/04 09:08:57;;;;;;;6.25;3.00;;;22.10;94.20;;;;;;5076076;28;20052;-38
2023/06/04 09:11:26;;;;;;;9.40;2.75;;;22.10;95.50;;;;;;5075163;28;20050;-36
2023/06/04 09:13:53;;;;;;;5.20;2.53;;;22.30;95.00;;;;;;5075017;28;20047;-46
2023/06/04 09:16:18;;;;;;;7.03;2.55;;;22.10;93.80;;;;;;5075612;28;20648;-42
2023/06/04 09:18:45;;;;;;;8.35;2.80;;;22.00;93.10;;;;;;5075619;28;20051;-38
2023/06/04 09:21:11;;;;;;;8.90;3.20;;;22.20;93.70;;;;;;5074336;28;20066;-44
2023/06/04 09:23:44;;;;;;;6.53;3.28;;;22.30;94.90;;;;;;5073474;28;20055;-37
2023/06/04 09:26:10;;;;;;;5.57;2.60;;;21.90;94.60;;;;;;5075214;28;20079;-40
2023/06/04 09:28:40;;;;;;;5.13;2.88;;;22.00;95.30;;;;;;5075397;28;20152;-39
2023/06/04 09:31:08;;;;;;;6.18;3.17;;;22.30;94.80;;;;;;5074869;28;20055;-41
2023/06/04 09:33:44;;;;;;;6.82;3.17;;;22.30;94.50;;;;;;5075245;28;20040;-38
2023/06/04 09:36:10;;;;;;;6.43;2.55;;;22.00;94.70;;;;;;5073628;28;20048;-40
2023/06/04 09:38:36;;;;;;;4.32;2.95;;;21.70;93.50;;;;;;5058597;28;20311;-40
2023/06/04 09:41:05;;;;;;;7.15;2.63;;;21.90;94.80;;;;;;5070154;28;20062;-41
2023/06/04 09:43:35;;;;;;;5.45;2.20;;;22.00;94.60;;;;;;5066479;28;20056;-43
2023/06/04 09:46:15;;;;;;;7.13;3.00;;;22.10;93.90;;;;;;5074430;28;20685;-37
2023/06/04 09:48:41;;;;;;;4.35;2.20;;;22.10;93.90;;;;;;5074167;28;20087;-38
2023/06/04 09:51:19;;;;;;;7.60;2.42;;;22.10;93.60;;;;;;5068649;28;20048;-40
2023/06/04 09:53:56;;;;;;;5.95;2.58;;;22.20;93.50;;;;;;5075108;28;20048;-45
2023/06/04 09:56:21;;;;;;;4.75;2.47;;;22.20;93.00;;;;;;5075215;28;20503;-40
2023/06/04 09:58:49;;;;;;;6.30;2.78;;;22.20;93.30;;;;;;5075414;28;20052;-42
2023/06/04 10:01:15;;;;;;;5.40;2.63;;;22.00;92.50;;;;;;5074488;28;20060;-41
2023/06/04 10:03:47;;;;;;;4.85;2.33;;;22.00;92.90;;;;;;5073970;28;20583;-36
2023/06/04 10:06:16;;;;;;;5.55;2.80;;;22.20;93.80;;;;;;5075282;28;20483;-37
2023/06/04 10:08:42;;;;;;;5.97;2.80;;;22.40;94.00;;;;;;5073632;28;20060;-45
2023/06/04 10:11:11;;;;;;;8.18;2.70;;;22.60;94.00;;;;;;5073783;28;20066;-37
2023/06/04 10:13:40;;;;;;;5.68;2.40;;;22.50;92.40;;;;;;5074614;28;20059;-41
2023/06/04 10:16:07;;;;;;;6.35;2.45;;;22.50;92.90;;;;;;5072943;28;20479;-38
2023/06/04 10:18:34;;;;;;;6.88;2.85;;;22.00;92.20;;;;;;5075660;28;20096;-37
2023/06/04 10:21:01;;;;;;;4.57;2.50;;;22.30;92.80;;;;;;5073840;28;20090;-40
2023/06/04 10:23:29;;;;;;;7.10;2.20;;;22.40;93.80;;;;;;5075614;28;20139;-43
2023/06/04 10:25:55;;;;;;;3.78;2.10;;;22.60;93.20;;;;;;5074505;28;20052;-44
2023/06/04 10:28:22;;;;;;;6.68;2.67;;;22.70;93.20;;;;;;5072795;28;20547;-38
2023/06/04 10:30:50;;;;;;;5.97;2.28;;;22.50;92.60;;;;;;5074062;28;20080;-39
2023/06/04 10:33:23;;;;;;;5.82;2.50;;;22.50;91.60;;;;;;5073305;28;20048;-46
2023/06/04 10:35:50;;;;;;;3.72;2.45;;;22.00;91.40;;;;;;5074333;28;20052;-40
2023/06/04 10:38:18;;;;;;;4.82;2.95;;;22.00;92.20;;;;;;5059471;28;20139;-45
2023/06/04 10:40:44;;;;;;;5.35;2.85;;;22.10;91.80;;;;;;5067071;28;20104;-44
2023/06/04 10:43:15;;;;;;;3.58;2.10;;;22.10;92.70;;;;;;5065579;28;20541;-39
2023/06/04 10:45:42;;;;;;;4.45;2.40;;;22.30;92.20;;;;;;5074035;28;20047;-44
2023/06/04 10:48:10;;;;;;;3.85;2.30;;;22.40;92.00;;;;;;5074729;28;20123;-40
2023/06/04 10:50:48;;;;;;;4.43;2.40;;;22.40;91.70;;;;;;5065700;28;20529;-45
2023/06/04 10:53:14;;;;;;;7.32;3.05;;;22.40;92.50;;;;;;5074299;28;20087;-40
2023/06/04 10:55:45;;;;;;;5.40;3.20;;;22.40;92.60;;;;;;5073199;28;20168;-42
2023/06/04 10:58:11;;;;;;;7.90;3.67;;;22.30;93.60;;;;;;5072807;28;20040;-40
2023/06/04 11:00:41;;;;;;;4.82;2.90;;;21.90;91.30;;;;;;5072507;28;20168;-42
2023/06/04 11:03:09;;;;;;;6.25;2.70;;;21.90;92.50;;;;;;5074307;28;20055;-41
2023/06/04 11:05:40;;;;;;;4.75;2.47;;;21.70;91.60;;;;;;5073295;28;20048;-43
2023/06/04 11:08:06;;;;;;;3.65;1.95;;;21.70;92.70;;;;;;5074255;28;20369;-42
2023/06/04 11:10:43;;;;;;;10.02;2.72;;;22.00;93.30;;;;;;5073049;28;20384;-39
2023/06/04 11:13:09;;;;;;;5.40;2.45;;;21.90;91.80;;;;;;5060588;28;20525;-36
2023/06/04 11:15:46;;;;;;;4.13;2.38;;;22.10;92.50;;;;;;5072380;28;20561;-39
2023/06/04 11:18:16;;;;;;;5.40;2.30;;;21.70;91.40;;;;;;5072833;28;20571;-42
2023/06/04 11:20:49;;;;;;;6.25;2.95;;;22.00;93.50;;;;;;5071542;28;20052;-45
2023/06/04 11:23:16;;;;;;;5.82;2.58;;;22.00;92.90;;;;;;5073852;28;20052;-37
2023/06/04 11:25:43;;;;;;;3.67;2.58;;;22.20;93.10;;;;;;5072614;28;20044;-46
2023/06/04 11:28:16;;;;;;;4.32;2.17;;;21.90;91.90;;;;;;5073603;28;20052;-40
2023/06/04 11:30:42;;;;;;;5.03;2.30;;;21.70;92.40;;;;;;5073156;28;20048;-44
2023/06/04 11:33:08;;;;;;;3.80;2.30;;;21.80;92.70;;;;;;5073937;28;20043;-38
2023/06/04 11:35:43;;;;;;;5.53;2.45;;;22.00;92.30;;;;;;5072400;28;20143;-40
2023/06/04 11:38:09;;;;;;;6.25;2.78;;;21.90;91.90;;;;;;5057615;28;20101;-41
2023/06/04 11:40:35;;;;;;;4.32;2.15;;;22.00;92.40;;;;;;5063866;28;20040;-37
2023/06/04 11:43:02;;;;;;;4.80;2.50;;;22.10;92.30;;;;;;5064243;28;20051;-39
2023/06/04 11:45:29;;;;;;;5.28;2.13;;;22.20;91.70;;;;;;5071399;28;20841;-41
2023/06/04 11:47:56;;;;;;;6.10;2.95;;;22.20;92.40;;;;;;5073446;28;20041;-38
2023/06/04 11:50:26;;;;;;;5.80;2.50;;;22.30;93.00;;;;;;5066518;28;20052;-44
2023/06/04 11:52:53;;;;;;;5.97;2.67;;;22.30;92.50;;;;;;5073530;28;20457;-39
2023/06/04 11:55:22;;;;;;;5.35;2.17;;;22.30;92.30;;;;;;5072877;28;20462;-40
2023/06/04 11:57:49;;;;;;;4.72;2.20;;;22.40;93.90;;;;;;5071987;28;20049;-40
2023/06/04 12:00:17;;;;;;;7.47;2.40;;;22.50;94.90;;;;;;5073582;28;20293;-41
2023/06/04 12:02:54;;;;;;;6.30;2.40;;;22.50;94.60;;;;;;5072562;28;20487;-38
2023/06/04 12:05:22;;;;;;;4.97;2.95;;;22.20;95.00;;;;;;5072489;28;20056;-38
2023/06/04 12:07:52;;;;;;;6.55;2.70;;;22.30;95.80;;;;;;5072942;28;20058;-42
2023/06/04 12:10:19;;;;;;;6.18;2.75;;;21.80;94.30;;;;;;5073653;28;20044;-41
2023/06/04 12:12:45;;;;;;;4.47;2.75;;;21.90;94.40;;;;;;5071323;28;20056;-41
2023/06/04 12:15:10;;;;;;;5.45;2.75;;;21.70;95.00;;;;;;5073112;28;20503;-39
2023/06/04 12:17:39;;;;;;;4.40;2.63;;;21.90;94.10;;;;;;5072977;28;20055;-38
2023/06/04 12:20:06;;;;;;;4.35;2.40;;;21.80;94.00;;;;;;5055492;28;20369;-38
2023/06/04 12:22:31;;;;;;;6.60;2.65;;;21.90;95.70;;;;;;5072981;28;20056;-40
2023/06/04 12:25:00;;;;;;;3.65;2.67;;;21.80;95.10;;;;;;5072991;28;20054;-38
2023/06/04 12:27:26;;;;;;;4.82;2.38;;;21.90;94.40;;;;;;5059899;28;20135;-42
2023/06/04 12:29:56;;;;;;;4.82;2.83;;;21.90;94.60;;;;;;5064045;28;20490;-39
2023/06/04 12:32:22;;;;;;;6.22;2.45;;;21.60;94.60;;;;;;5071431;28;20574;-41
2023/06/04 12:34:48;;;;;;;4.97;2.60;;;21.40;95.20;;;;;;5057506;28;20045;-41
2023/06/04 12:37:14;;;;;;;5.88;2.78;;;21.50;95.40;;;;;;5064852;28;20422;-43
2023/06/04 12:39:39;;;;;;;3.47;2.15;;;21.40;94.80;;;;;;5073418;28;20146;-38
2023/06/04 12:42:08;;;;;;;6.95;2.47;;;21.50;95.70;;;;;;5075119;28;20391;-41
2023/06/04 12:44:37;;;;;;;3.58;2.22;;;21.60;95.50;;;;;;5073042;28;20043;-42